KMKT Airport (Mankato Rgnl) Information

FAA: MKT - ICAO: KMKT

KMKT Airport Location

State Minnesota
County Blue Earth
City Mankato
KMKT Airport is 5 miles northeast of Mankato, MN.
Latitude 44-13-22.0000N
Longitude 093-55-09.5000W
Elevation 1,020ft

KMKT Airport METARs

METAR KMKT 121456Z AUTO 12018G25KT 10SM BKN120 18/16 A3016 RMK AO2 RAE21 SLP212 P0000 60003 T01780161 50009
Altimeter 30.16"
Temperature 17.8°C (64.0°F)
Wind 120° at 18KT with gusts to 25KT
Clouds broken at 12,000ft
Visibility 10.0mi
Time observed: 2022-08-12T14:56:00Z

KMKT Airport Details

Status Operational
Activation November 1971
Ownership Public
Usage Public
Chart OMAHA
ATC on-site No
Beacon schedule sunset-sunrise
Beacon color clear green

KMKT Airport Contacts

Owner CITY OF MANKATO
Owner address 10 CIVIC CENTER PLAZA, P.O. BOX 3368, MANKATO, MN 56001
Owner phone 507-387-8600
Manager MIKE FORT
Manager address 901 MAIN ST., BOX 135, LITTLEFORK, MN 56653
Manager phone 218-278-6710

KMKT Airport (Mankato Rgnl) Radio Frequencies

KMKT (Airport) Radio Frequencies

UNICOM 122.725
Common traffic advisory frequency (CTAF) 122.725